Data for 02/18/2006

Time Sea-Level Adjusted Pressure Absolute Pressure Temperature Relative Humidity Dew Point   
(mb) (inHg) (mb) (inHg) (C) (F) (%) (C) (F)
00:05 1025 30.27 854 25.22 -27.1 -16.8 64 -32.1 -25.7
00:10 1025 30.27 854 25.22 -27.1 -16.7 63 -32.1 -25.8
00:15 1025 30.27 854 25.22 -27.1 -16.7 63 -32.1 -25.7
00:20 1025 30.27 854 25.22 -27 -16.7 63 -32.1 -25.7
00:25 1025 30.27 854 25.22 -26.9 -16.4 63 -31.9 -25.4
00:30 1025 30.27 854 25.22 -26.6 -15.9 62 -31.9 -25.4
00:35 1025 30.27 854 25.22 -26.5 -15.8 62 -31.8 -25.3
00:40 1025 30.27 854 25.22 -26.6 -15.9 63 -31.7 -25.1
00:45 1025 30.27 854 25.22 -26.6 -15.8 61 -32 -25.5
00:50 1025 30.27 854 25.22 -26.6 -15.9 62 -31.9 -25.5
00:55 1025 30.27 854 25.22 -26.7 -16 63 -31.8 -25.3
01:00 1025 30.27 854 25.22 -26.8 -16.2 62 -31.9 -25.5
01:05 1025 30.27 854 25.22 -26.8 -16.3 63 -31.9 -25.4
01:10 1025 30.27 854 25.22 -26.9 -16.3 64 -31.8 -25.2
01:15 1025 30.27 854 25.22 -26.8 -16.2 63 -31.9 -25.4
01:20 1025 30.27 854 25.22 -26.7 -16 62 -31.9 -25.5
01:25 1025 30.27 854 25.22 -26.7 -16 62 -31.9 -25.3
01:30 1025 30.27 854 25.22 -26.7 -16 63 -31.7 -25.1
01:35 1025 30.27 854 25.22 -26.8 -16.3 64 -31.8 -25.2
01:40 1025 30.27 854 25.22 -26.9 -16.4 64 -31.8 -25.2
01:45 1025 30.27 854 25.22 -26.8 -16.2 63 -31.9 -25.5
01:50 1025 30.27 854 25.22 -26.7 -16.1 63 -31.8 -25.3
01:55 1025 30.27 854 25.22 -27 -16.6 64 -32 -25.5
02:00 1025 30.27 854 25.22 -27.1 -16.7 64 -32.1 -25.7
02:05 1025 30.27 854 25.22 -26.9 -16.4 63 -31.9 -25.5
02:10 1025 30.27 854 25.22 -26.7 -16.1 63 -31.7 -25.1
02:15 1025 30.27 854 25.22 -26.7 -16 63 -31.8 -25.3
02:20 1025 30.27 854 25.22 -26.8 -16.2 63 -31.8 -25.3
02:25 1025 30.27 854 25.22 -26.9 -16.4 63 -32 -25.6
02:30 1025 30.27 854 25.22 -27 -16.7 63 -32.1 -25.7
02:35 1025 30.27 854 25.22 -27.1 -16.7 64 -32 -25.5
02:40 1025 30.27 854 25.22 -27.2 -16.9 64 -32 -25.7
02:45 1025 30.27 854 25.22 -27 -16.7 64 -31.9 -25.4
02:50 1025 30.27 854 25.22 -27 -16.6 64 -32 -25.5
02:55 1025 30.27 854 25.22 -26.9 -16.3 63 -31.9 -25.4
03:00 1025 30.27 854 25.22 -26.8 -16.2 62 -32 -25.6
03:05 1025 30.27 854 25.22 -26.8 -16.2 63 -31.9 -25.3
03:10 1024 30.24 854 25.22 -26.8 -16.2 63 -31.8 -25.3
03:15 1024 30.24 854 25.22 -26.8 -16.2 63 -31.8 -25.2
03:20 1024 30.24 854 25.22 -26.8 -16.2 63 -31.8 -25.2
03:25 1024 30.24 853 25.19 -26.7 -16.1 63 -31.7 -25.1
03:30 1024 30.24 853 25.19 -26.7 -16.1 63 -31.8 -25.3
03:35 1024 30.24 853 25.19 -26.7 -16 64 -31.7 -25
03:40 1024 30.24 853 25.19 -26.7 -16.1 64 -31.6 -24.9
03:45 1024 30.24 853 25.19 -26.6 -15.9 62 -31.8 -25.2
03:50 1024 30.24 853 25.19 -26.6 -15.9 63 -31.7 -25.1
03:55 1024 30.24 853 25.19 -26.8 -16.2 64 -31.8 -25.2
04:00 1024 30.24 853 25.19 -27 -16.6 64 -31.9 -25.5
04:05 1024 30.24 853 25.19 -27 -16.6 64 -31.9 -25.4
04:10 1024 30.24 853 25.19 -27.1 -16.7 65 -31.9 -25.3
04:15 1024 30.24 853 25.19 -26.9 -16.5 64 -31.9 -25.4
04:20 1024 30.24 853 25.19 -26.7 -16.1 63 -31.9 -25.3
04:25 1024 30.24 853 25.19 -26.7 -16 63 -31.8 -25.2
04:30 1024 30.24 853 25.19 -26.7 -16.1 63 -31.8 -25.3
04:35 1024 30.24 853 25.19 -26.7 -16.1 62 -31.9 -25.4
04:40 1024 30.24 853 25.19 -26.8 -16.2 63 -31.8 -25.2
04:45 1024 30.24 853 25.19 -26.8 -16.2 63 -31.8 -25.3
04:50 1024 30.24 853 25.19 -26.7 -16 64 -31.7 -25
04:55 1024 30.24 853 25.19 -26.8 -16.3 64 -31.7 -25
05:00 1024 30.24 853 25.19 -27 -16.6 66 -31.6 -24.8
05:05 1024 30.24 853 25.19 -27.2 -16.9 66 -31.8 -25.2
05:10 1024 30.24 853 25.19 -27.1 -16.8 64 -32 -25.6
05:15 1024 30.24 853 25.19 -26.9 -16.4 66 -31.5 -24.7
05:20 1024 30.24 853 25.19 -26.9 -16.4 68 -31.2 -24.2
05:25 1024 30.24 853 25.19 -26.9 -16.5 65 -31.7 -25
05:30 1024 30.24 853 25.19 -26.6 -15.9 64 -31.5 -24.7
05:35 1024 30.24 853 25.19 -26.7 -16.1 63 -31.7 -25.1
05:40 1024 30.24 853 25.19 -26.8 -16.2 64 -31.7 -25.1
05:45 1024 30.24 853 25.19 -26.8 -16.2 65 -31.5 -24.8
05:50 1024 30.24 853 25.19 -27.1 -16.8 66 -31.7 -25
05:55 1023 30.21 853 25.19 -27.3 -17.1 65 -31.9 -25.5
06:00 1024 30.24 853 25.19 -27.2 -16.9 65 -31.9 -25.5
06:05 1023 30.21 853 25.19 -27.3 -17.1 65 -32 -25.6
06:10 1023 30.21 853 25.19 -27.3 -17.2 65 -32.1 -25.7
06:15 1023 30.21 853 25.19 -27.4 -17.3 66 -32 -25.6
06:20 1023 30.21 853 25.19 -27.2 -16.9 65 -31.9 -25.5
06:25 1023 30.21 853 25.19 -27 -16.6 65 -31.8 -25.3
06:30 1023 30.21 853 25.19 -26.9 -16.4 64 -31.8 -25.2
06:35 1024 30.24 853 25.19 -26.8 -16.2 64 -31.6 -24.9
06:40 1024 30.24 853 25.19 -26.8 -16.3 65 -31.6 -24.9
06:45 1024 30.24 853 25.19 -26.9 -16.4 66 -31.5 -24.7
06:50 1024 30.24 853 25.19 -27 -16.6 65 -31.8 -25.2
06:55 1024 30.24 853 25.19 -27 -16.6 65 -31.8 -25.2
07:00 1024 30.24 853 25.19 -26.9 -16.5 65 -31.7 -25.1
07:05 1024 30.24 853 25.19 -26.9 -16.3 64 -31.7 -25
07:10 1024 30.24 853 25.19 -27 -16.5 65 -31.7 -25.1
07:15 1024 30.24 853 25.19 -26.9 -16.4 64 -31.7 -25.1
07:20 1024 30.24 853 25.19 -26.7 -16 64 -31.7 -25
07:25 1024 30.24 853 25.19 -26.6 -15.8 64 -31.5 -24.8
07:30 1024 30.24 853 25.19 -26.5 -15.7 63 -31.5 -24.7
07:35 1024 30.24 853 25.19 -26.4 -15.5 64 -31.3 -24.4
07:40 1024 30.24 853 25.19 -26.3 -15.4 62 -31.5 -24.7
07:45 1024 30.24 853 25.19 -26.2 -15.1 67 -30.6 -23
07:50 1024 30.24 853 25.19 -25.6 -14.2 65 -30.4 -22.7
07:55 1024 30.24 853 25.19 -25.6 -14 65 -30.4 -22.7
08:00 1024 30.24 853 25.19 -25.3 -13.6 63 -30.4 -22.8
08:05 1024 30.24 853 25.19 -25.1 -13.1 61 -30.6 -23.1
08:10 1024 30.24 853 25.19 -25 -13 61 -30.5 -22.9
08:15 1024 30.24 853 25.19 -24.9 -12.8 60 -30.6 -23.2
08:20 1024 30.24 853 25.19 -24.7 -12.4 60 -30.3 -22.6
08:25 1024 30.24 853 25.19 -24.5 -12.1 60 -30.3 -22.5
08:30 1024 30.24 853 25.19 -24.4 -12 56 -30.8 -23.4
08:35 1024 30.24 853 25.19 -24.4 -11.9 56 -30.8 -23.4
08:40 1024 30.24 853 25.19 -23.9 -10.9 54 -30.6 -23.1
08:45 1024 30.24 853 25.19 -23.5 -10.4 54 -30.5 -22.9
08:50 1024 30.24 853 25.19 -23.7 -10.7 54 -30.6 -23
08:55 1024 30.24 853 25.19 -23.7 -10.7 54 -30.6 -23.1
09:00 1024 30.24 853 25.19 -23.6 -10.6 57 -30 -21.9
09:05 1024 30.24 853 25.19 -23.6 -10.5 53 -30.7 -23.3
09:10 1024 30.24 853 25.19 -23.4 -10.1 55 -30.1 -22.2
09:15 1024 30.24 853 25.19 -22.2 -7.9 51 -29.8 -21.6
09:20 1024 30.24 853 25.19 -22 -7.7 50 -29.7 -21.5
09:25 1024 30.24 853 25.19 -22.5 -8.4 51 -30 -22
09:30 1024 30.24 853 25.19 -21.9 -7.5 50 -29.7 -21.4
09:35 1024 30.24 853 25.19 -21.3 -6.3 51 -29 -20.2
09:40 1024 30.24 853 25.19 -21 -5.8 51 -28.8 -19.8
09:45 1024 30.24 853 25.19 -20.9 -5.6 51 -28.6 -19.5
09:50 1024 30.24 853 25.19 -20.6 -5.1 49 -28.8 -19.8
09:55 1024 30.24 853 25.19 -20.4 -4.7 48 -28.8 -19.8
10:00 1024 30.24 853 25.19 -20.4 -4.8 48 -28.8 -19.8
10:05 1024 30.24 853 25.19 -20.4 -4.8 47 -29 -20.2
10:10 1024 30.24 853 25.19 -20.2 -4.3 46 -29.2 -20.5
10:15 1024 30.24 853 25.19 -19.8 -3.6 47 -28.5 -19.3
10:20 1024 30.24 853 25.19 -19.3 -2.7 45 -28.5 -19.4
10:25 1024 30.24 853 25.19 -18.8 -1.9 42 -28.7 -19.7
10:30 1024 30.24 853 25.19 -18.4 -1.1 42 -28.3 -19
10:35 1024 30.24 853 25.19 -17.9 -0.3 40 -28.4 -19.1
10:40 1024 30.24 853 25.19 -17.9 -0.1 41 -28.2 -18.8
10:45 1024 30.24 853 25.19 -18.2 -0.7 42 -28.2 -18.7
10:50 1024 30.24 853 25.19 -18 -0.4 41 -28.2 -18.8
10:55 1024 30.24 853 25.19 -18 -0.4 43 -27.8 -18.1
11:00 1024 30.24 853 25.19 -18 -0.3 41 -28.2 -18.7
11:05 1024 30.24 853 25.19 -17.8 -0.1 41 -28 -18.4
11:10 1024 30.24 853 25.19 -18 -0.3 43 -27.8 -18.1
11:15 1024 30.24 853 25.19 -17.9 -0.3 42 -27.9 -18.2
11:20 1024 30.24 853 25.19 -18.1 -0.6 44 -27.6 -17.6
11:25 1024 30.24 853 25.19 -18 -0.4 43 -27.8 -18.1
11:30 1024 30.24 853 25.19 -18.2 -0.7 43 -27.8 -18
11:35 1024 30.24 853 25.19 -17.8 -0 43 -27.7 -17.8
11:40 1024 30.24 853 25.19 -17.9 -0.1 41 -28.1 -18.6
11:45 1024 30.24 853 25.19 -18 -0.3 44 -27.5 -17.5
11:50 1024 30.24 853 25.19 -17.4 0.7 40 -27.9 -18.3
11:55 1024 30.24 853 25.19 -18 -0.3 43 -27.7 -17.9
12:00 1023 30.21 853 25.19 -17.8 0.1 42 -27.7 -17.9
12:05 1023 30.21 853 25.19 -17.1 1.2 40 -27.8 -18
12:10 1023 30.21 853 25.19 -17.3 0.8 40 -28 -18.5
12:15 1023 30.21 853 25.19 -18 -0.4 44 -27.6 -17.6
12:20 1023 30.21 852 25.16 -17.8 0.1 42 -27.7 -17.9
12:25 1023 30.21 852 25.16 -17.9 -0.2 44 -27.4 -17.4
12:30 1023 30.21 852 25.16 -17.8 -0 42 -27.7 -17.9
12:35 1023 30.21 852 25.16 -17.8 -0 43 -27.5 -17.4
12:40 1023 30.21 852 25.16 -17.8 0.1 43 -27.5 -17.5
12:45 1023 30.21 852 25.16 -16.5 2.2 37 -28 -18.4
12:50 1023 30.21 852 25.16 -17.1 1.3 39 -28.1 -18.6
12:55 1023 30.21 852 25.16 -18.2 -0.7 42 -28.1 -18.7
13:00 1023 30.21 852 25.16 -17.5 0.5 42 -27.4 -17.4
13:05 1023 30.21 852 25.16 -17.4 0.6 40 -27.9 -18.3
13:10 1023 30.21 852 25.16 -17.1 1.3 37 -28.4 -19.2
13:15 1023 30.21 852 25.16 -17.1 1.3 39 -28 -18.4
13:20 1022 30.18 852 25.16 -16.8 1.7 41 -27.3 -17.1
13:25 1022 30.18 852 25.16 -16 3.3 40 -26.7 -16.1
13:30 1022 30.18 852 25.16 -15.9 3.5 38 -27.1 -16.8
13:35 1022 30.18 852 25.16 -15.9 3.3 35 -28.1 -18.6
13:40 1022 30.18 851 25.13 -16.7 1.9 38 -28 -18.5
13:45 1022 30.18 851 25.13 -16.7 1.9 38 -27.9 -18.3
13:50 1022 30.18 851 25.13 -16.2 2.8 37 -27.9 -18.2
13:55 1022 30.18 851 25.13 -16.2 2.9 37 -27.7 -17.9
14:00 1022 30.18 851 25.13 -16.1 3 38 -27.4 -17.4
14:05 1022 30.18 851 25.13 -15.8 3.7 35 -28 -18.4
14:10 1022 30.18 851 25.13 -16 3.3 37 -27.6 -17.6
14:15 1022 30.18 851 25.13 -15.6 3.8 33 -28.5 -19.4
14:20 1022 30.18 851 25.13 -15 4.9 33 -27.9 -18.1
14:25 1022 30.18 851 25.13 -15.7 3.8 34 -28.1 -18.5
14:30 1022 30.18 851 25.13 -15.2 4.6 32 -28.4 -19
14:35 1022 30.18 851 25.13 -15.1 4.7 33 -28.1 -18.6
14:40 1022 30.18 851 25.13 -15.3 4.4 31 -28.8 -19.9
14:45 1022 30.18 851 25.13 -15.7 3.8 33 -28.6 -19.6
14:50 1022 30.18 851 25.13 -15.6 3.9 33 -28.6 -19.4
14:55 1022 30.18 851 25.13 -15.2 4.6 33 -28.2 -18.8
15:00 1022 30.18 851 25.13 -15.1 4.8 33 -28.1 -18.5
15:05 1022 30.18 851 25.13 -15.1 4.7 31 -28.6 -19.5
15:10 1021 30.15 851 25.13 -15.4 4.4 32 -28.7 -19.7
15:15 1021 30.15 851 25.13 -14.9 5.3 31 -28.7 -19.6
15:20 1021 30.15 851 25.13 -14.5 6 29 -29 -20.3
15:25 1021 30.15 851 25.13 -14.5 5.9 30 -28.5 -19.3
15:30 1021 30.15 851 25.13 -14.4 6.1 29 -28.7 -19.7
15:35 1021 30.15 851 25.13 -14.6 5.8 31 -28.3 -19
15:40 1021 30.15 851 25.13 -14.7 5.5 31 -28.5 -19.3
15:45 1021 30.15 851 25.13 -14.8 5.4 31 -28.6 -19.4
15:50 1021 30.15 850 25.1 -14.3 6.3 30 -28.3 -18.9
15:55 1021 30.15 850 25.1 -14.2 6.5 30 -28.3 -19
16:00 1021 30.15 850 25.1 -14.5 5.9 30 -28.7 -19.6
16:05 1021 30.15 850 25.1 -14.7 5.5 29 -29 -20.2
16:10 1021 30.15 850 25.1 -15.9 3.4 32 -29.1 -20.4
16:15 1021 30.15 850 25.1 -16.2 2.8 32 -29.5 -21.2
16:20 1021 30.15 850 25.1 -16.4 2.6 32 -29.7 -21.4
16:25 1021 30.15 850 25.1 -15.8 3.5 30 -29.7 -21.5
16:30 1021 30.15 850 25.1 -15.8 3.6 30 -29.6 -21.3
16:35 1021 30.15 850 25.1 -15.7 3.8 29 -29.9 -21.8
16:40 1021 30.15 850 25.1 -15.4 4.2 29 -29.7 -21.5
16:45 1021 30.15 850 25.1 -15.2 4.6 30 -29.3 -20.8
16:50 1021 30.15 850 25.1 -15.3 4.5 30 -29.4 -20.9
16:55 1021 30.15 850 25.1 -15.1 4.8 29 -29.5 -21.1
17:00 1021 30.15 850 25.1 -15.4 4.3 30 -29.4 -20.9
17:05 1021 30.15 850 25.1 -15.8 3.5 31 -29.3 -20.7
17:10 1021 30.15 850 25.1 -16.2 2.8 33 -28.9 -20
17:15 1021 30.15 850 25.1 -16.9 1.7 34 -29.4 -20.9
17:20 1021 30.15 850 25.1 -17.4 0.7 35 -29.5 -21.2
17:25 1021 30.15 850 25.1 -17.3 0.8 31 -30.7 -23.2
17:30 1021 30.15 850 25.1 -17.3 0.8 30 -30.9 -23.7
17:35 1021 30.15 850 25.1 -17.2 1.1 31 -30.6 -23.1
17:40 1021 30.15 850 25.1 -16.9 1.6 32 -30 -22.1
17:45 1020 30.12 850 25.1 -17.1 1.3 31 -30.5 -23
17:50 1020 30.12 850 25.1 -17.5 0.5 33 -30.4 -22.6
17:55 1020 30.12 850 25.1 -17.5 0.5 33 -30.1 -22.2
18:00 1020 30.12 850 25.1 -17.4 0.6 33 -30.1 -22.1
18:05 1020 30.12 850 25.1 -17.5 0.5 37 -29 -20.2
18:10 1020 30.12 850 25.1 -17.7 0.2 38 -28.9 -20.1
18:15 1020 30.12 850 25.1 -17.9 -0.2 36 -29.7 -21.5
18:20 1020 30.12 850 25.1 -18.1 -0.5 36 -29.9 -21.8
18:25 1020 30.12 850 25.1 -18.1 -0.7 37 -29.6 -21.3
18:30 1020 30.12 850 25.1 -18.2 -0.8 38 -29.4 -20.9
18:35 1020 30.12 850 25.1 -18.5 -1.4 39 -29.2 -20.6
18:40 1020 30.12 850 25.1 -18.7 -1.6 40 -29.1 -20.3
18:45 1020 30.12 850 25.1 -18.7 -1.6 41 -29 -20.2
18:50 1020 30.12 850 25.1 -18.7 -1.7 40 -29.1 -20.5
18:55 1020 30.12 850 25.1 -18.8 -1.9 42 -28.7 -19.6
19:00 1020 30.12 850 25.1 -19.1 -2.3 45 -28.2 -18.8
19:05 1020 30.12 850 25.1 -19.3 -2.7 46 -28.1 -18.5
19:10 1020 30.12 850 25.1 -19.4 -2.9 46 -28.2 -18.8
19:15 1020 30.12 850 25.1 -19.6 -3.2 47 -28.1 -18.6
19:20 1020 30.12 850 25.1 -19.6 -3.4 47 -28.3 -18.9
19:25 1020 30.12 850 25.1 -19.8 -3.6 49 -27.9 -18.2
19:30 1020 30.12 850 25.1 -19.8 -3.7 48 -28.2 -18.7
19:35 1020 30.12 850 25.1 -19.8 -3.7 48 -28.1 -18.6
19:40 1020 30.12 850 25.1 -19.9 -3.8 49 -28 -18.4
19:45 1020 30.12 850 25.1 -20 -4 50 -28 -18.4
19:50 1021 30.15 850 25.1 -19.9 -3.8 50 -27.8 -18
19:55 1021 30.15 850 25.1 -19.8 -3.7 49 -28 -18.3
20:00 1021 30.15 850 25.1 -19.7 -3.4 50 -27.8 -18
20:05 1021 30.15 850 25.1 -19.7 -3.5 49 -27.9 -18.2
20:10 1021 30.15 850 25.1 -19.7 -3.5 54 -26.9 -16.4
20:15 1021 30.15 850 25.1 -19.5 -3.1 52 -27.1 -16.7
20:20 1020 30.12 850 25.1 -19.4 -3 52 -26.9 -16.4
20:25 1021 30.15 850 25.1 -19.7 -3.4 54 -26.8 -16.2
20:30 1021 30.15 850 25.1 -20.4 -4.8 59 -26.6 -15.8
20:35 1021 30.15 850 25.1 -20.6 -5 53 -27.7 -17.9
20:40 1021 30.15 850 25.1 -20.5 -4.9 55 -27.4 -17.4
20:45 1021 30.15 850 25.1 -20.7 -5.3 54 -27.7 -17.9
20:50 1021 30.15 850 25.1 -20.7 -5.2 55 -27.6 -17.6
20:55 1021 30.15 850 25.1 -21.1 -6.1 57 -27.7 -17.8
21:00 1021 30.15 850 25.1 -20.7 -5.3 55 -27.5 -17.6
21:05 1021 30.15 850 25.1 -20.3 -4.6 53 -27.6 -17.6
21:10 1021 30.15 850 25.1 -20.4 -4.6 51 -28 -18.5
21:15 1021 30.15 850 25.1 -20.5 -4.9 51 -28.2 -18.8
21:20 1021 30.15 850 25.1 -20.6 -5 52 -28.1 -18.6
21:25 1021 30.15 850 25.1 -20.7 -5.2 53 -27.9 -18.3
21:30 1021 30.15 850 25.1 -20.7 -5.3 54 -27.7 -17.9
21:35 1021 30.15 850 25.1 -20.8 -5.4 53 -28.1 -18.5
21:40 1021 30.15 850 25.1 -21 -5.7 53 -28.2 -18.7
21:45 1021 30.15 850 25.1 -21 -5.8 53 -28.3 -18.9
21:50 1021 30.15 850 25.1 -20.8 -5.5 53 -28 -18.4
21:55 1021 30.15 850 25.1 -20.6 -5.1 51 -28.2 -18.8
22:00 1021 30.15 850 25.1 -20.5 -4.8 51 -28.1 -18.6
22:05 1021 30.15 850 25.1 -20.4 -4.7 51 -28.1 -18.5
22:10 1021 30.15 850 25.1 -20.3 -4.6 51 -27.9 -18.3
22:15 1021 30.15 850 25.1 -20.3 -4.6 52 -27.9 -18.2
22:20 1021 30.15 850 25.1 -20.5 -4.9 57 -27 -16.5
22:25 1021 30.15 850 25.1 -20.4 -4.8 55 -27.3 -17.1
22:30 1020 30.12 850 25.1 -20.3 -4.5 53 -27.5 -17.5
22:35 1020 30.12 850 25.1 -20.1 -4.1 53 -27.3 -17.1
22:40 1020 30.12 850 25.1 -20.2 -4.3 56 -26.8 -16.2
22:45 1020 30.12 850 25.1 -20.4 -4.7 56 -27.1 -16.7
22:50 1020 30.12 850 25.1 -20.6 -5 56 -27.1 -16.8
22:55 1020 30.12 850 25.1 -21 -5.9 60 -27 -16.6
23:00 1020 30.12 850 25.1 -21.1 -6 57 -27.5 -17.5
23:05 1020 30.12 850 25.1 -21.5 -6.8 59 -27.6 -17.6
23:10 1020 30.12 850 25.1 -21.8 -7.3 59 -27.9 -18.3
23:15 1020 30.12 850 25.1 -21.8 -7.2 59 -27.9 -18.1
23:20 1020 30.12 850 25.1 -21.7 -7 60 -27.4 -17.4
23:25 1020 30.12 850 25.1 -21.6 -6.9 59 -27.6 -17.6
23:30 1020 30.12 850 25.1 -21.3 -6.4 58 -27.5 -17.5
23:35 1020 30.12 850 25.1 -21.4 -6.6 58 -27.6 -17.7
23:40 1020 30.12 850 25.1 -21.4 -6.5 57 -27.8 -18
23:45 1020 30.12 850 25.1 -21.1 -5.9 56 -27.7 -17.8
23:50 1020 30.12 850 25.1 -21 -5.8 57 -27.4 -17.3
23:55 1020 30.12 850 25.1 -21.3 -6.4 59 -27.4 -17.4
24:00 1020 30.12 850 25.1 -21.5 -6.8 60 -27.4 -17.4